Rollins, Montana
Current Conditions -  °F | °C
As of 10:55 PM on Friday 28 Nov 2014 (Local Time) from KGPI Reporting Station
Light Rain Light Rain  
Wind Chill: 38°   Ceiling: 3500
Heat Index: 42°   Visibility: 10mi
Dew Point: 37°   Wind: 7mph
Humidity: 82%   Direction: 200°SSW
Pressure: 29.21"   Gusts: NA
Location:  47.91°N, 114.21°W
Report Text: KGPI 290555Z 20006KT 10SM -RA OVC035 06/03 A2921 RMK AO2 RAE07B26 SLP896 P0000 60004 T00560028 10078 20056 55006
Loading
Personal Weather Stations






























Interactive Weather Map New forecast layout! Learn more

10-Day Weather Forecast

Advertisements
Track Severe Weather on mobile